Time;durP1;ratioP1;P1;durP2;ratioP2;P2;SDS_P1;SDS_P2;PMS_P1;PMS_P2;Temp;Humidity;BMP_temperature;BMP_pressure;BME280_temperature;BME280_humidity;BME280_pressure;Samples;Min_cycle;Max_cycle;Signal;HPM_P1;HPM_P2
2021/08/09 06:23:13;;;;;;;5.83;4.90;;;24.30;99.90;;;;;;6093391;22;1481774;-95
2021/08/09 06:25:39;;;;;;;5.43;4.80;;;24.30;99.90;;;;;;6162971;23;20399;-96
2021/08/09 06:28:05;;;;;;;4.73;4.23;;;24.40;99.90;;;;;;6142355;23;20183;-96
2021/08/09 06:30:31;;;;;;;5.50;4.83;;;24.40;99.90;;;;;;6139459;23;20153;-95
2021/08/09 06:32:57;;;;;;;8.03;5.30;;;24.40;99.90;;;;;;6133974;23;20406;-96
2021/08/09 06:35:23;;;;;;;5.20;4.37;;;24.50;99.90;;;;;;6134506;23;20407;-96
2021/08/09 06:37:49;;;;;;;5.07;4.67;;;24.60;99.90;;;;;;6133348;23;20421;-95
2021/08/09 06:40:15;;;;;;;5.37;4.07;;;24.60;99.90;;;;;;6134306;23;20243;-95
2021/08/09 06:42:41;;;;;;;4.33;3.77;;;24.70;99.90;;;;;;6132331;23;20537;-96
2021/08/09 06:45:07;;;;;;;4.17;3.77;;;24.70;99.90;;;;;;6132431;23;20161;-95
2021/08/09 06:47:33;;;;;;;5.43;3.90;;;24.80;99.90;;;;;;6135839;23;20180;-96
2021/08/09 06:49:59;;;;;;;4.70;4.30;;;24.80;99.90;;;;;;6133811;23;20727;-95
2021/08/09 06:52:25;;;;;;;8.03;4.50;;;24.80;99.90;;;;;;6131194;23;20416;-95
2021/08/09 06:54:58;;;;;;;4.47;4.07;;;24.80;99.90;;;;;;6135145;23;20441;-93
2021/08/09 06:57:24;;;;;;;4.93;3.80;;;24.90;99.90;;;;;;6137268;23;20241;-94
2021/08/09 06:59:52;;;;;;;5.00;4.50;;;24.90;99.90;;;;;;6142158;23;20399;-94
2021/08/09 07:02:28;;;;;;;4.70;4.20;;;24.90;99.90;;;;;;6145611;23;20193;-93
2021/08/09 07:04:54;;;;;;;4.43;3.97;;;24.90;99.90;;;;;;6134000;23;20399;-96
2021/08/09 07:07:20;;;;;;;5.07;3.77;;;24.90;99.90;;;;;;6133472;23;20421;-96
2021/08/09 07:09:46;;;;;;;3.77;3.40;;;24.90;99.90;;;;;;6149165;23;20443;-95
2021/08/09 07:12:12;;;;;;;4.67;4.00;;;25.00;99.90;;;;;;6171495;23;20395;-94
2021/08/09 07:14:38;;;;;;;5.80;3.90;;;25.00;99.90;;;;;;6131019;23;20212;-94
2021/08/09 07:17:05;;;;;;;8.73;4.43;;;25.10;99.90;;;;;;6132391;23;20901;-95
2021/08/09 07:19:31;;;;;;;4.60;4.20;;;25.10;99.90;;;;;;6138246;23;20171;-95
2021/08/09 07:21:56;;;;;;;5.03;4.50;;;25.20;99.90;;;;;;6137849;23;20458;-95
2021/08/09 07:24:22;;;;;;;4.23;3.83;;;25.20;99.90;;;;;;6132288;23;20161;-95
2021/08/09 07:26:49;;;;;;;6.10;4.67;;;25.30;99.90;;;;;;6133080;23;20193;-94
2021/08/09 07:29:15;;;;;;;5.27;4.47;;;25.30;99.90;;;;;;6158234;23;20268;-94
2021/08/09 07:31:41;;;;;;;4.40;3.97;;;25.30;99.90;;;;;;6133710;23;20436;-96
2021/08/09 07:34:06;;;;;;;4.10;3.70;;;25.40;99.90;;;;;;6133739;23;20400;-96
2021/08/09 07:36:32;;;;;;;4.07;3.70;;;25.40;99.90;;;;;;6132692;23;20424;-96
2021/08/09 07:38:59;;;;;;;4.70;3.80;;;25.50;99.90;;;;;;6130848;23;20427;-95
2021/08/09 07:41:25;;;;;;;3.83;3.50;;;25.50;99.90;;;;;;6127138;23;20474;-94
2021/08/09 07:43:52;;;;;;;4.20;3.80;;;25.60;99.90;;;;;;6127586;23;20404;-93
2021/08/09 07:46:18;;;;;;;4.40;3.50;;;25.60;99.90;;;;;;6127694;23;20197;-95
2021/08/09 07:48:48;;;;;;;5.63;3.80;;;25.70;99.90;;;;;;6129405;23;20459;-94
2021/08/09 07:51:17;;;;;;;3.70;3.40;;;25.70;99.90;;;;;;6130714;23;20213;-96
2021/08/09 07:53:42;;;;;;;6.80;4.30;;;25.70;99.90;;;;;;6128726;23;20408;-94
2021/08/09 07:56:08;;;;;;;4.47;3.23;;;25.80;99.90;;;;;;6131510;23;20394;-94
2021/08/09 07:58:34;;;;;;;5.73;3.67;;;25.80;99.90;;;;;;6130311;23;20166;-95
2021/08/09 08:00:59;;;;;;;4.50;4.10;;;25.90;99.90;;;;;;6131213;23;20585;-94
2021/08/09 08:03:25;;;;;;;3.83;3.53;;;25.90;99.90;;;;;;6132410;23;20167;-93
2021/08/09 08:05:51;;;;;;;4.37;3.60;;;26.00;99.90;;;;;;6132874;23;20179;-93
2021/08/09 08:08:17;;;;;;;6.00;3.90;;;26.00;99.90;;;;;;6140849;23;20203;-94
2021/08/09 08:10:43;;;;;;;5.23;4.70;;;26.10;99.90;;;;;;6131509;23;20396;-94
2021/08/09 08:13:09;;;;;;;4.53;4.03;;;26.20;99.90;;;;;;6133239;23;20579;-94
2021/08/09 08:15:38;;;;;;;5.20;3.77;;;26.20;99.90;;;;;;6157170;23;20155;-93
2021/08/09 08:18:04;;;;;;;4.23;3.83;;;26.20;99.90;;;;;;6131401;23;20518;-94
2021/08/09 08:20:30;;;;;;;4.60;4.20;;;26.30;99.90;;;;;;6132926;23;20385;-96
2021/08/09 08:22:57;;;;;;;4.47;3.77;;;26.30;99.90;;;;;;6132247;23;20214;-94
2021/08/09 08:25:23;;;;;;;4.20;3.90;;;26.40;99.90;;;;;;6131796;23;20238;-94
2021/08/09 08:27:48;;;;;;;3.80;3.37;;;26.40;99.90;;;;;;6135656;23;20448;-96
2021/08/09 08:30:16;;;;;;;5.63;3.60;;;26.50;99.90;;;;;;6139910;23;20159;-94
2021/08/09 08:32:45;;;;;;;3.90;3.50;;;26.60;99.90;;;;;;6131318;23;20414;-93
2021/08/09 08:35:10;;;;;;;4.40;4.00;;;26.60;99.90;;;;;;6132221;23;20389;-92
2021/08/09 08:37:36;;;;;;;5.07;4.30;;;26.70;99.90;;;;;;6130907;23;20420;-94
2021/08/09 08:40:02;;;;;;;4.50;3.47;;;26.80;99.90;;;;;;6163118;23;20159;-95
2021/08/09 08:42:28;;;;;;;8.80;4.13;;;26.80;99.90;;;;;;6172360;23;20151;-93
2021/08/09 08:44:54;;;;;;;3.67;3.30;;;26.90;99.90;;;;;;6143816;23;20385;-94
2021/08/09 08:47:20;;;;;;;3.63;3.37;;;26.90;99.90;;;;;;6131235;23;20179;-93
2021/08/09 08:49:47;;;;;;;3.63;3.20;;;27.00;99.90;;;;;;6130322;23;20199;-94
2021/08/09 08:52:15;;;;;;;3.97;3.67;;;27.10;99.90;;;;;;6155851;23;20981;-91
2021/08/09 08:54:48;;;;;;;4.07;3.30;;;27.10;99.90;;;;;;6129344;23;20419;-96
2021/08/09 08:57:19;;;;;;;4.40;4.00;;;27.10;99.90;;;;;;6130082;23;20409;-94
2021/08/09 08:59:45;;;;;;;4.20;3.80;;;27.20;99.90;;;;;;6138725;23;20418;-91
2021/08/09 09:02:32;;;;;;;3.50;3.20;;;27.20;99.90;;;;;;6156720;23;20385;-92
2021/08/09 09:05:16;;;;;;;4.50;3.10;;;27.30;99.90;;;;;;6130211;23;20385;-94
2021/08/09 09:07:47;;;;;;;3.93;3.53;;;27.40;99.90;;;;;;6154789;23;20429;-92
2021/08/09 09:10:24;;;;;;;5.50;3.27;;;27.50;99.90;;;;;;6130981;23;20385;-93
2021/08/09 09:13:14;;;;;;;3.50;3.10;;;27.50;99.90;;;;;;6155018;23;20736;-95
2021/08/09 09:16:07;;;;;;;3.93;3.30;;;27.50;99.90;;;;;;6122838;23;20389;-96
2021/08/09 09:18:45;;;;;;;2.50;2.30;;;27.50;99.90;;;;;;6130235;23;20733;-94
2021/08/09 09:21:25;;;;;;;2.90;2.70;;;27.70;99.90;;;;;;6132183;23;20861;-94
2021/08/09 09:23:52;;;;;;;6.50;3.20;;;27.70;99.90;;;;;;6132019;23;20492;-94
2021/08/09 09:26:25;;;;;;;2.70;2.50;;;27.80;99.90;;;;;;6129250;23;20456;-94
2021/08/09 09:28:52;;;;;;;3.83;3.10;;;27.90;99.90;;;;;;6129998;23;20460;-93
2021/08/09 09:31:31;;;;;;;3.47;3.20;;;27.90;99.90;;;;;;6130096;23;20481;-93
2021/08/09 09:33:57;;;;;;;4.73;2.80;;;27.90;99.90;;;;;;6131732;23;20700;-95
2021/08/09 09:36:23;;;;;;;3.13;2.90;;;28.00;99.90;;;;;;6133097;23;20846;-92
2021/08/09 09:39:02;;;;;;;4.70;3.70;;;28.00;99.90;;;;;;6133596;23;20431;-93
2021/08/09 09:41:28;;;;;;;4.23;3.80;;;28.10;99.90;;;;;;6132556;23;20455;-92
2021/08/09 09:43:57;;;;;;;5.57;3.80;;;28.10;99.90;;;;;;6133197;23;20393;-92
2021/08/09 09:46:28;;;;;;;4.53;4.13;;;28.10;99.90;;;;;;6133102;23;20271;-94
2021/08/09 09:49:01;;;;;;;3.57;2.93;;;28.10;99.90;;;;;;6132974;23;20440;-93
2021/08/09 09:51:27;;;;;;;4.67;3.70;;;28.10;99.90;;;;;;6159286;23;20411;-93
2021/08/09 09:53:53;;;;;;;4.47;4.07;;;28.10;99.90;;;;;;6134825;23;20843;-96
2021/08/09 09:56:23;;;;;;;6.10;3.93;;;28.10;99.90;;;;;;6132516;23;20405;-90
2021/08/09 09:58:58;;;;;;;4.60;3.83;;;28.10;99.90;;;;;;6162756;23;20372;-93
2021/08/09 10:01:25;;;;;;;6.80;4.30;;;28.20;99.90;;;;;;6141376;23;20404;-91
2021/08/09 10:03:51;;;;;;;4.77;4.10;;;28.20;99.90;;;;;;6143575;23;20404;-93
2021/08/09 10:06:18;;;;;;;5.87;3.97;;;28.20;99.90;;;;;;6138243;23;20405;-92
2021/08/09 10:08:44;;;;;;;4.33;3.93;;;28.30;99.90;;;;;;6163524;23;20461;-93
2021/08/09 10:11:11;;;;;;;4.93;4.43;;;28.30;99.90;;;;;;6132307;23;20444;-95
2021/08/09 10:13:40;;;;;;;4.93;4.43;;;28.30;99.90;;;;;;6134898;23;20389;-91
2021/08/09 10:16:09;;;;;;;5.87;3.80;;;28.40;99.90;;;;;;6163071;23;20437;-93
2021/08/09 10:18:42;;;;;;;3.77;3.47;;;28.50;99.90;;;;;;6156930;23;20390;-95
2021/08/09 10:21:09;;;;;;;4.90;3.80;;;28.50;99.90;;;;;;6144599;23;20451;-93
2021/08/09 10:23:44;;;;;;;3.47;3.17;;;28.50;99.90;;;;;;6142391;23;20406;-92
2021/08/09 10:26:20;;;;;;;3.67;3.27;;;28.50;99.90;;;;;;6133543;23;20405;-92
2021/08/09 10:29:11;;;;;;;4.27;3.53;;;28.50;99.90;;;;;;6129718;23;20488;-93
2021/08/09 10:31:40;;;;;;;3.83;3.53;;;28.50;99.90;;;;;;6155515;23;20402;-96
2021/08/09 10:34:34;;;;;;;3.87;3.57;;;28.50;99.90;;;;;;6157498;23;20389;-93
2021/08/09 10:37:10;;;;;;;4.00;3.13;;;28.60;99.90;;;;;;6156363;23;20460;-66
2021/08/09 10:39:59;;;;;;;4.27;3.50;;;28.50;99.90;;;;;;6186682;23;20777;-66
2021/08/09 10:42:28;;;;;;;4.10;3.13;;;28.60;99.90;;;;;;6185583;23;20457;-69
2021/08/09 10:44:55;;;;;;;3.40;3.10;;;28.50;99.90;;;;;;6186238;23;20475;-64
2021/08/09 10:47:45;;;;;;;3.57;3.27;;;28.50;99.90;;;;;;6185414;23;20415;-63
2021/08/09 10:50:31;;;;;;;2.87;2.67;;;28.50;99.90;;;;;;6159320;23;20522;-64
2021/08/09 10:52:58;;;;;;;3.40;3.10;;;28.40;99.90;;;;;;6164669;23;20428;-69
2021/08/09 10:55:30;;;;;;;3.13;2.93;;;28.40;99.90;;;;;;6184157;23;20428;-69
2021/08/09 10:57:56;;;;;;;4.13;3.07;;;28.40;99.90;;;;;;6184818;23;20734;-63
2021/08/09 11:00:47;;;;;;;4.80;2.77;;;28.40;99.90;;;;;;6156989;23;20482;-64
2021/08/09 11:03:19;;;;;;;2.63;2.43;;;28.40;99.90;;;;;;6183605;23;20392;-68
2021/08/09 11:05:44;;;;;;;3.63;2.70;;;28.40;99.90;;;;;;6155931;23;20409;-67
2021/08/09 11:08:19;;;;;;;3.70;2.80;;;28.30;99.90;;;;;;6156495;23;20481;-64
2021/08/09 11:11:05;;;;;;;3.70;3.00;;;28.30;99.90;;;;;;6180760;23;20162;-66
2021/08/09 11:13:57;;;;;;;3.80;2.77;;;28.20;99.90;;;;;;6156033;23;20747;-65
2021/08/09 11:16:33;;;;;;;2.67;2.47;;;28.40;99.90;;;;;;6169273;23;20389;-67
2021/08/09 11:18:59;;;;;;;3.67;3.37;;;28.40;99.90;;;;;;6181297;23;20415;-68
2021/08/09 11:21:26;;;;;;;2.87;2.67;;;28.40;99.90;;;;;;6183570;23;20394;-64
2021/08/09 11:23:52;;;;;;;3.43;2.87;;;28.40;99.90;;;;;;6182727;23;20159;-68
2021/08/09 11:26:21;;;;;;;2.90;2.67;;;28.40;99.90;;;;;;6157854;23;20432;-64
2021/08/09 11:29:16;;;;;;;3.60;3.00;;;28.50;99.90;;;;;;6182752;23;20455;-67
2021/08/09 11:31:47;;;;;;;2.47;2.27;;;28.50;99.90;;;;;;6158359;23;20484;-64
2021/08/09 11:34:13;;;;;;;2.40;2.20;;;28.60;99.90;;;;;;6183652;23;20953;-64
2021/08/09 11:36:39;;;;;;;2.70;2.50;;;28.60;99.90;;;;;;6159228;23;20446;-64
2021/08/09 11:39:05;;;;;;;3.23;2.70;;;28.70;99.90;;;;;;6160069;23;20374;-68
2021/08/09 11:41:31;;;;;;;2.97;2.70;;;28.60;99.90;;;;;;6186090;23;20458;-68
2021/08/09 11:44:06;;;;;;;2.53;2.33;;;28.70;99.90;;;;;;6158678;23;20616;-68
2021/08/09 11:46:33;;;;;;;2.70;2.50;;;28.60;99.90;;;;;;6185576;23;20805;-67
2021/08/09 11:48:59;;;;;;;2.63;2.43;;;28.70;99.90;;;;;;6184244;23;20484;-67
2021/08/09 11:51:27;;;;;;;2.73;2.53;;;28.80;99.90;;;;;;6185652;23;20418;-63
2021/08/09 11:53:54;;;;;;;3.00;2.70;;;28.80;99.90;;;;;;6184178;23;20163;-65
2021/08/09 11:56:24;;;;;;;3.27;2.70;;;29.00;99.90;;;;;;6186081;23;20384;-63
2021/08/09 11:58:49;;;;;;;2.90;2.70;;;29.10;99.90;;;;;;6158996;23;20386;-68
2021/08/09 12:01:33;;;;;;;2.80;2.60;;;29.00;99.90;;;;;;6157819;23;20398;-65
2021/08/09 12:04:08;;;;;;;2.50;2.30;;;28.90;99.90;;;;;;6159628;23;20546;-68
2021/08/09 12:06:45;;;;;;;2.70;2.50;;;28.90;99.90;;;;;;6159723;23;20719;-64
2021/08/09 12:09:13;;;;;;;2.70;2.50;;;29.00;99.90;;;;;;6155971;23;20436;-68
2021/08/09 12:11:39;;;;;;;2.87;2.50;;;28.90;99.90;;;;;;6157315;23;20453;-65
2021/08/09 12:14:11;;;;;;;3.00;2.70;;;28.90;99.90;;;;;;6183272;23;20372;-68
2021/08/09 12:16:48;;;;;;;6.13;3.60;;;28.90;99.90;;;;;;6183656;23;20411;-65
2021/08/09 12:19:15;;;;;;;2.70;2.53;;;29.00;99.90;;;;;;6180629;23;20374;-64
2021/08/09 12:21:42;;;;;;;2.57;2.37;;;29.10;99.90;;;;;;6152880;23;20727;-66
2021/08/09 12:24:23;;;;;;;3.00;2.63;;;29.20;99.90;;;;;;6183804;23;20374;-67
2021/08/09 12:26:51;;;;;;;3.00;2.40;;;29.20;99.90;;;;;;6184587;23;20408;-65
2021/08/09 12:29:21;;;;;;;3.10;2.47;;;29.20;99.90;;;;;;6184257;23;20440;-69
2021/08/09 12:31:48;;;;;;;2.40;2.20;;;29.20;99.90;;;;;;6182942;23;20433;-67
2021/08/09 12:34:19;;;;;;;2.73;2.50;;;29.20;99.90;;;;;;6180157;23;20433;-68
2021/08/09 12:36:45;;;;;;;3.43;3.03;;;29.10;99.90;;;;;;6178129;23;20457;-68
2021/08/09 12:39:28;;;;;;;3.60;3.30;;;29.00;99.90;;;;;;6154891;23;20394;-64
2021/08/09 12:41:54;;;;;;;4.03;3.13;;;29.10;99.90;;;;;;6181304;23;20472;-64
2021/08/09 12:44:20;;;;;;;4.50;4.10;;;29.10;99.90;;;;;;6178910;23;20383;-66
2021/08/09 12:46:45;;;;;;;3.10;2.80;;;29.30;99.90;;;;;;6155592;23;20180;-66
2021/08/09 12:49:11;;;;;;;3.17;2.60;;;29.40;99.90;;;;;;6182828;23;20194;-67
2021/08/09 12:51:36;;;;;;;3.10;2.80;;;29.60;99.90;;;;;;6177788;23;20184;-67
2021/08/09 12:54:02;;;;;;;2.33;2.20;;;29.50;99.90;;;;;;6180002;23;20148;-66
2021/08/09 12:56:28;;;;;;;3.90;3.03;;;29.50;99.90;;;;;;6183462;23;20216;-66
2021/08/09 12:58:53;;;;;;;3.13;2.83;;;29.50;99.90;;;;;;6182040;23;20155;-66
2021/08/09 13:01:19;;;;;;;3.20;2.90;;;29.50;99.90;;;;;;6178551;23;20522;-65
2021/08/09 13:03:44;;;;;;;3.10;2.80;;;29.50;99.90;;;;;;6179741;23;20525;-65
2021/08/09 13:06:10;;;;;;;2.60;2.40;;;29.60;99.90;;;;;;6178584;23;20169;-67
2021/08/09 13:08:36;;;;;;;2.30;2.10;;;29.60;99.90;;;;;;6181269;23;20212;-65
2021/08/09 13:11:01;;;;;;;3.03;2.50;;;29.70;99.90;;;;;;6181152;23;20170;-66
2021/08/09 13:13:28;;;;;;;2.10;1.90;;;29.70;99.90;;;;;;6178932;23;20690;-66
2021/08/09 13:15:54;;;;;;;2.43;2.23;;;29.90;99.90;;;;;;6153122;23;20178;-66
2021/08/09 13:18:22;;;;;;;3.20;2.60;;;29.90;99.90;;;;;;6178056;23;20399;-65
2021/08/09 13:20:48;;;;;;;2.80;2.60;;;29.80;99.90;;;;;;6178834;23;20387;-66
2021/08/09 13:23:14;;;;;;;4.00;2.70;;;29.80;99.90;;;;;;6150101;23;20417;-67
2021/08/09 13:25:40;;;;;;;2.70;2.50;;;29.80;99.90;;;;;;6179088;23;20219;-65
2021/08/09 13:28:07;;;;;;;2.33;2.13;;;29.80;99.90;;;;;;6154191;23;20415;-67
2021/08/09 13:30:32;;;;;;;2.93;2.27;;;29.80;99.90;;;;;;6184385;23;20463;-65
2021/08/09 13:32:58;;;;;;;2.50;2.30;;;29.90;99.90;;;;;;6184997;23;20450;-65
2021/08/09 13:35:24;;;;;;;2.20;2.00;;;29.90;99.90;;;;;;6184751;23;20164;-65
2021/08/09 13:37:49;;;;;;;2.50;2.30;;;29.80;99.90;;;;;;6184522;23;20268;-66
2021/08/09 13:40:15;;;;;;;2.63;2.43;;;29.90;99.90;;;;;;6184673;23;20157;-66
2021/08/09 13:42:41;;;;;;;2.30;2.10;;;30.00;99.90;;;;;;6184031;23;20185;-66
2021/08/09 13:45:06;;;;;;;2.57;2.33;;;30.00;99.90;;;;;;6180197;23;20588;-66
2021/08/09 13:47:32;;;;;;;2.40;2.20;;;30.00;99.90;;;;;;6181662;23;20261;-68
2021/08/09 13:49:58;;;;;;;3.40;2.10;;;30.10;99.90;;;;;;6180253;23;20187;-67
2021/08/09 13:52:24;;;;;;;3.13;2.40;;;30.20;99.90;;;;;;6176660;23;20517;-65
2021/08/09 13:54:50;;;;;;;4.07;2.83;;;30.20;99.90;;;;;;6179963;23;20368;-67
2021/08/09 13:57:17;;;;;;;2.90;2.30;;;30.20;99.90;;;;;;6183354;23;20183;-66
2021/08/09 13:59:43;;;;;;;2.57;2.37;;;30.20;99.90;;;;;;6184193;23;20155;-67
2021/08/09 14:02:13;;;;;;;3.30;2.53;;;30.30;99.90;;;;;;6184353;23;20442;-66
2021/08/09 14:04:38;;;;;;;3.40;2.70;;;30.30;99.90;;;;;;6185367;23;20673;-65
2021/08/09 14:07:04;;;;;;;4.10;2.60;;;30.30;99.90;;;;;;6184860;23;20424;-66
2021/08/09 14:09:30;;;;;;;3.50;2.60;;;30.30;99.90;;;;;;6184068;23;20220;-67
2021/08/09 14:11:56;;;;;;;2.90;2.60;;;30.20;99.90;;;;;;6184595;23;20415;-67
2021/08/09 14:14:21;;;;;;;3.07;2.87;;;30.30;99.90;;;;;;6159317;23;20172;-68
2021/08/09 14:16:47;;;;;;;3.60;2.70;;;30.30;99.90;;;;;;6160148;23;20324;-66
2021/08/09 14:19:14;;;;;;;3.20;2.90;;;30.30;99.90;;;;;;6187523;23;20457;-65
2021/08/09 14:21:39;;;;;;;3.40;2.40;;;30.30;99.90;;;;;;6186248;23;20193;-65
2021/08/09 14:24:05;;;;;;;3.30;3.00;;;30.30;99.90;;;;;;6159309;23;20897;-65
2021/08/09 14:26:31;;;;;;;2.90;2.23;;;30.30;99.90;;;;;;6182108;23;20395;-67
2021/08/09 14:29:00;;;;;;;4.37;2.70;;;30.30;99.90;;;;;;6158037;23;20212;-69
2021/08/09 14:31:27;;;;;;;3.33;3.03;;;30.30;99.90;;;;;;6184360;23;20149;-66
2021/08/09 14:33:52;;;;;;;5.63;2.80;;;30.40;99.90;;;;;;6158806;23;20541;-65
2021/08/09 14:36:18;;;;;;;2.67;2.47;;;30.50;99.90;;;;;;6184287;23;20477;-67
2021/08/09 14:38:44;;;;;;;2.80;2.40;;;30.50;99.90;;;;;;6185394;23;20446;-67
2021/08/09 14:41:09;;;;;;;3.80;2.50;;;30.50;99.90;;;;;;6183491;23;20178;-68
2021/08/09 14:43:35;;;;;;;4.63;2.50;;;30.50;99.90;;;;;;6182076;23;20634;-65
2021/08/09 14:46:01;;;;;;;3.70;2.77;;;30.60;99.90;;;;;;6184655;23;20532;-68
2021/08/09 14:48:27;;;;;;;2.67;2.47;;;30.60;99.90;;;;;;6186051;23;20334;-66
2021/08/09 14:50:53;;;;;;;2.83;2.63;;;30.70;99.90;;;;;;6184748;23;20469;-67
2021/08/09 14:53:19;;;;;;;3.60;2.50;;;30.70;99.90;;;;;;6187152;23;20440;-65
2021/08/09 14:55:44;;;;;;;4.03;3.10;;;30.80;99.90;;;;;;6185679;23;20371;-66
2021/08/09 14:58:10;;;;;;;3.70;2.80;;;30.80;99.90;;;;;;6187154;23;20281;-66
2021/08/09 15:00:36;;;;;;;2.50;2.30;;;30.80;99.90;;;;;;6186977;23;20159;-66
2021/08/09 15:03:04;;;;;;;3.00;2.53;;;30.90;99.90;;;;;;6183440;23;20177;-65
2021/08/09 15:05:30;;;;;;;3.90;2.70;;;30.90;99.90;;;;;;6156915;23;20156;-67
2021/08/09 15:07:55;;;;;;;5.53;2.70;;;30.90;99.90;;;;;;6155322;23;20437;-67
2021/08/09 15:10:21;;;;;;;2.97;2.67;;;30.80;99.90;;;;;;6183616;23;20181;-68
2021/08/09 15:12:47;;;;;;;2.17;2.03;;;30.90;99.90;;;;;;6183313;23;20176;-67
2021/08/09 15:15:12;;;;;;;3.10;2.27;;;30.90;99.90;;;;;;6183141;23;20158;-67
2021/08/09 15:17:38;;;;;;;2.40;2.20;;;30.90;99.90;;;;;;6185431;23;20607;-67
2021/08/09 15:20:05;;;;;;;9.27;3.33;;;30.90;99.90;;;;;;6187176;23;20471;-66
2021/08/09 15:22:31;;;;;;;3.10;2.73;;;30.90;99.90;;;;;;6183449;23;20180;-68
2021/08/09 15:24:57;;;;;;;4.20;2.97;;;30.90;99.90;;;;;;6184523;23;20381;-68
2021/08/09 15:27:22;;;;;;;2.77;2.57;;;30.90;99.90;;;;;;6184656;23;20169;-68
2021/08/09 15:29:51;;;;;;;2.73;2.53;;;30.90;99.90;;;;;;6184470;23;20651;-66
2021/08/09 15:32:17;;;;;;;4.67;3.40;;;30.90;99.60;;;;;;6182859;23;20251;-66
2021/08/09 15:34:42;;;;;;;2.90;2.23;;;30.90;99.80;;;;;;6184679;23;20396;-67
2021/08/09 15:37:09;;;;;;;2.67;2.47;;;30.90;99.90;;;;;;6157330;23;20209;-66
2021/08/09 15:39:35;;;;;;;2.63;2.40;;;30.90;99.80;;;;;;6185047;23;20155;-66
2021/08/09 15:42:00;;;;;;;2.90;2.70;;;30.90;99.80;;;;;;6184500;23;20402;-66
2021/08/09 15:44:26;;;;;;;3.70;3.20;;;30.90;99.70;;;;;;6185607;23;20164;-66
2021/08/09 15:46:52;;;;;;;3.30;2.60;;;30.90;99.70;;;;;;6185021;23;20622;-67
2021/08/09 15:49:23;;;;;;;2.47;2.27;;;30.90;99.70;;;;;;6158752;23;20273;-66
2021/08/09 15:51:49;;;;;;;3.37;2.37;;;30.90;99.60;;;;;;6183304;23;20615;-67
2021/08/09 15:54:15;;;;;;;3.10;2.80;;;30.90;99.70;;;;;;6186526;23;20480;-67
2021/08/09 15:56:42;;;;;;;2.63;2.43;;;30.90;99.70;;;;;;6186826;23;20385;-66
2021/08/09 15:59:08;;;;;;;3.30;2.80;;;30.90;99.60;;;;;;6160461;23;20543;-66
2021/08/09 16:01:34;;;;;;;2.63;2.27;;;30.90;99.60;;;;;;6186728;23;20488;-66
2021/08/09 16:04:00;;;;;;;3.50;3.30;;;30.90;99.50;;;;;;6187124;23;20161;-67
2021/08/09 16:06:26;;;;;;;3.40;3.00;;;30.90;99.50;;;;;;6160339;23;20390;-66
2021/08/09 16:08:51;;;;;;;5.37;2.90;;;30.90;99.50;;;;;;6160426;23;20279;-67
2021/08/09 16:11:17;;;;;;;2.50;2.30;;;30.90;99.70;;;;;;6186472;23;20592;-67
2021/08/09 16:13:42;;;;;;;2.80;2.60;;;30.90;99.70;;;;;;6186554;23;20480;-69
2021/08/09 16:16:08;;;;;;;2.50;2.30;;;30.90;99.90;;;;;;6186582;23;20151;-67
2021/08/09 16:18:35;;;;;;;3.37;3.17;;;30.90;99.90;;;;;;6160227;23;20193;-66
2021/08/09 16:21:01;;;;;;;4.83;2.57;;;30.90;99.90;;;;;;6186542;23;20477;-67
2021/08/09 16:23:26;;;;;;;2.77;2.57;;;30.90;99.80;;;;;;6186728;23;20448;-64
2021/08/09 16:25:53;;;;;;;2.87;2.63;;;30.90;99.80;;;;;;6186485;23;20485;-65
2021/08/09 16:28:19;;;;;;;2.40;2.20;;;30.90;99.90;;;;;;6186557;23;20566;-65
2021/08/09 16:30:44;;;;;;;3.20;2.90;;;30.90;99.80;;;;;;6160129;23;20475;-64
2021/08/09 16:33:10;;;;;;;2.53;2.33;;;30.90;99.90;;;;;;6186601;23;20621;-64
2021/08/09 16:35:39;;;;;;;3.20;2.30;;;30.90;99.90;;;;;;6186480;23;20161;-65
2021/08/09 16:38:05;;;;;;;2.80;2.60;;;30.90;99.90;;;;;;6185859;23;20200;-64
2021/08/09 16:40:31;;;;;;;3.13;2.50;;;30.80;99.90;;;;;;6186350;23;20385;-66
2021/08/09 16:42:57;;;;;;;2.97;2.77;;;30.80;99.90;;;;;;6183917;23;20417;-64
2021/08/09 16:45:22;;;;;;;2.90;2.60;;;30.80;99.90;;;;;;6183911;23;20243;-64
2021/08/09 16:47:48;;;;;;;3.97;3.00;;;30.70;99.90;;;;;;6157245;23;20200;-64
2021/08/09 16:50:13;;;;;;;3.00;2.70;;;30.70;99.90;;;;;;6183711;23;20197;-64
2021/08/09 16:52:39;;;;;;;3.17;2.60;;;30.70;99.90;;;;;;6183713;23;20224;-64
2021/08/09 16:55:05;;;;;;;3.20;2.90;;;30.60;99.90;;;;;;6183872;23;20523;-66
2021/08/09 16:57:31;;;;;;;2.57;2.37;;;30.60;99.90;;;;;;6183005;23;20217;-63
2021/08/09 16:59:57;;;;;;;3.27;2.97;;;30.60;99.90;;;;;;6157311;23;20394;-64
2021/08/09 17:02:26;;;;;;;4.83;3.00;;;30.60;99.90;;;;;;6157919;23;20216;-65
2021/08/09 17:04:52;;;;;;;3.40;2.57;;;30.50;99.90;;;;;;6186257;23;20371;-65
2021/08/09 17:07:18;;;;;;;5.80;3.40;;;30.50;99.90;;;;;;6184090;23;20486;-66
2021/08/09 17:09:43;;;;;;;3.17;2.87;;;30.50;99.90;;;;;;6157387;23;20198;-65
2021/08/09 17:12:11;;;;;;;3.70;2.90;;;30.40;99.90;;;;;;6183678;23;20183;-64
2021/08/09 17:14:36;;;;;;;3.37;3.07;;;30.40;99.90;;;;;;6182406;23;20162;-64
2021/08/09 17:17:02;;;;;;;3.93;3.47;;;30.40;99.90;;;;;;6183693;23;20704;-64
2021/08/09 17:19:28;;;;;;;3.20;2.90;;;30.30;99.90;;;;;;6182422;23;20162;-65
2021/08/09 17:21:55;;;;;;;3.73;3.13;;;30.30;99.90;;;;;;6184415;23;20391;-64
2021/08/09 17:24:21;;;;;;;3.70;3.13;;;30.30;99.90;;;;;;6186685;23;20161;-64
2021/08/09 17:26:46;;;;;;;4.37;3.10;;;30.20;99.90;;;;;;6185996;23;20406;-64
2021/08/09 17:29:19;;;;;;;3.23;2.93;;;30.20;99.90;;;;;;6159835;23;20247;-64
2021/08/09 17:31:44;;;;;;;3.40;3.10;;;30.10;99.90;;;;;;6186177;23;20179;-64
2021/08/09 17:34:10;;;;;;;3.77;2.93;;;30.10;99.90;;;;;;6186638;23;20434;-64
2021/08/09 17:36:36;;;;;;;3.73;3.37;;;30.10;99.90;;;;;;6185936;23;20197;-64
2021/08/09 17:39:01;;;;;;;3.20;2.90;;;30.10;99.90;;;;;;6186200;23;20596;-66
2021/08/09 17:41:27;;;;;;;3.90;3.47;;;30.00;99.90;;;;;;6159617;23;20177;-63
2021/08/09 17:43:53;;;;;;;3.43;3.00;;;30.00;99.90;;;;;;6186160;23;20588;-65
2021/08/09 17:46:18;;;;;;;3.60;3.00;;;29.90;99.90;;;;;;6185739;23;20153;-66
2021/08/09 17:48:44;;;;;;;3.77;2.90;;;29.90;99.90;;;;;;6159601;23;20223;-64
2021/08/09 17:51:12;;;;;;;3.03;2.57;;;29.80;99.90;;;;;;6186514;23;20158;-67
2021/08/09 17:53:37;;;;;;;3.40;3.10;;;29.80;99.90;;;;;;6188279;23;20625;-66
2021/08/09 17:56:03;;;;;;;5.93;3.27;;;29.70;99.90;;;;;;6187999;23;20367;-68
2021/08/09 17:58:29;;;;;;;11.03;3.90;;;29.70;99.90;;;;;;6187866;23;20407;-67
2021/08/09 18:00:54;;;;;;;3.50;2.87;;;29.60;99.90;;;;;;6187209;23;20159;-67
2021/08/09 18:03:20;;;;;;;4.23;3.63;;;29.60;99.90;;;;;;6187608;23;20175;-66
2021/08/09 18:05:46;;;;;;;3.73;3.40;;;29.50;99.90;;;;;;6161115;23;20170;-68
2021/08/09 18:08:11;;;;;;;4.67;4.10;;;29.50;99.90;;;;;;6186128;23;20181;-63
2021/08/09 18:10:38;;;;;;;5.67;3.60;;;29.40;99.90;;;;;;6185812;23;20167;-65
2021/08/09 18:13:03;;;;;;;4.13;3.30;;;29.40;99.90;;;;;;6159878;23;20579;-63
2021/08/09 18:15:29;;;;;;;3.27;2.97;;;29.40;99.90;;;;;;6186369;23;20366;-64
2021/08/09 18:17:55;;;;;;;3.67;3.37;;;29.30;99.90;;;;;;6186406;23;20543;-64
2021/08/09 18:20:22;;;;;;;3.43;2.97;;;29.30;99.90;;;;;;6186527;23;20164;-65
2021/08/09 18:22:48;;;;;;;4.40;3.77;;;29.20;99.90;;;;;;6185978;23;20647;-63
2021/08/09 18:25:14;;;;;;;4.10;3.60;;;29.20;99.90;;;;;;6184806;23;20384;-63
2021/08/09 18:27:40;;;;;;;2.90;2.70;;;29.10;99.90;;;;;;6158482;23;20413;-65
2021/08/09 18:30:06;;;;;;;4.73;3.40;;;29.10;99.90;;;;;;6185010;23;20517;-65
2021/08/09 18:32:34;;;;;;;5.40;3.00;;;29.00;99.90;;;;;;6184878;23;20198;-64
2021/08/09 18:35:00;;;;;;;3.47;3.07;;;29.00;99.90;;;;;;6185087;23;20385;-64
2021/08/09 18:37:26;;;;;;;4.13;3.20;;;29.00;99.90;;;;;;6184648;23;20807;-66
2021/08/09 18:39:51;;;;;;;4.60;3.50;;;28.90;99.90;;;;;;6185957;23;20390;-64
2021/08/09 18:42:17;;;;;;;3.70;3.37;;;28.90;99.90;;;;;;6187468;23;20176;-63
2021/08/09 18:44:42;;;;;;;4.13;2.93;;;28.90;99.90;;;;;;6188074;23;20655;-64
2021/08/09 18:47:09;;;;;;;3.60;3.30;;;28.80;99.90;;;;;;6187332;23;20174;-65
2021/08/09 18:49:34;;;;;;;4.10;3.30;;;28.80;99.90;;;;;;6188000;23;20202;-64
2021/08/09 18:52:00;;;;;;;4.30;3.23;;;28.80;99.90;;;;;;6160991;23;20416;-64
2021/08/09 18:54:25;;;;;;;4.00;3.60;;;28.70;99.90;;;;;;6188045;23;20158;-65
2021/08/09 18:56:52;;;;;;;4.30;3.27;;;28.70;99.90;;;;;;6187236;23;20254;-63
2021/08/09 18:59:18;;;;;;;4.00;3.70;;;28.60;99.90;;;;;;6187758;23;20158;-64
2021/08/09 19:01:44;;;;;;;3.87;3.47;;;28.60;99.90;;;;;;6187141;23;20398;-64
2021/08/09 19:04:11;;;;;;;3.33;3.03;;;28.50;99.90;;;;;;6161057;23;20423;-64
2021/08/09 19:06:37;;;;;;;3.70;3.40;;;28.50;99.90;;;;;;6160932;23;20914;-63
2021/08/09 19:09:03;;;;;;;3.63;3.30;;;28.50;99.90;;;;;;6160939;23;20488;-64
2021/08/09 19:11:29;;;;;;;3.60;3.30;;;28.40;99.90;;;;;;6187363;23;20369;-63